createdAt,value
2023-01-27T00:01:01.400Z,101055.81
2023-01-27T00:03:29.172Z,101053.75
2023-01-27T00:06:01.362Z,101044.59
2023-01-27T00:08:29.714Z,101047.94
2023-01-27T00:11:13.219Z,101048.78
2023-01-27T00:13:40.929Z,101044.13
2023-01-27T00:16:08.774Z,101051.16
2023-01-27T00:18:36.584Z,101045.91
2023-01-27T00:21:23.452Z,101046.94
2023-01-27T00:24:08.715Z,101043.38
2023-01-27T00:26:36.499Z,101041.22
2023-01-27T00:29:04.345Z,101030.72
2023-01-27T00:31:49.853Z,101032.41
2023-01-27T00:34:17.588Z,101038.97
2023-01-27T00:36:46.611Z,101040.28
2023-01-27T00:39:15.191Z,101028.94
2023-01-27T00:41:42.872Z,101044.50
2023-01-27T00:44:13.229Z,101031.56
2023-01-27T00:46:41.517Z,101028.28
2023-01-27T00:49:09.982Z,101025.38
2023-01-27T00:51:40.477Z,101026.03
2023-01-27T00:54:10.081Z,101024.16
2023-01-27T00:56:38.398Z,101023.41
2023-01-27T00:59:06.155Z,101025.75
2023-01-27T01:01:35.019Z,101021.53
2023-01-27T01:04:03.202Z,101020.78
2023-01-27T01:06:31.110Z,101027.25
2023-01-27T01:08:59.152Z,101026.47
2023-01-27T01:11:28.514Z,101029.78
2023-01-27T01:13:56.804Z,101037.56
2023-01-27T01:16:26.034Z,101033.53
2023-01-27T01:18:54.431Z,101035.88
2023-01-27T01:21:22.434Z,101047.94
2023-01-27T01:23:50.348Z,101048.69
2023-01-27T01:26:19.046Z,101038.84
2023-01-27T01:28:48.750Z,101039.69
2023-01-27T01:31:18.656Z,101041.38
2023-01-27T01:33:46.996Z,101039.34
2023-01-27T01:36:16.645Z,101039.81
2023-01-27T01:38:44.571Z,101039.34
2023-01-27T01:41:14.967Z,101044.22
2023-01-27T01:43:43.047Z,101042.72
2023-01-27T01:46:13.079Z,101037.66
2023-01-27T01:48:44.423Z,101043.66
2023-01-27T01:51:15.836Z,101034.47
2023-01-27T01:53:51.231Z,101045.16
2023-01-27T01:56:24.294Z,101039.34
2023-01-27T01:58:53.874Z,101034.09
2023-01-27T02:01:23.026Z,101043.44
2023-01-27T02:03:54.583Z,101037.28
2023-01-27T02:06:23.031Z,101037.84
2023-01-27T02:08:52.069Z,101035.97
2023-01-27T02:11:20.074Z,101032.38
2023-01-27T02:13:48.566Z,101032.22
2023-01-27T02:16:16.605Z,101025.28
2023-01-27T02:18:51.575Z,101031.81
2023-01-27T02:21:19.845Z,101027.63
2023-01-27T02:23:56.629Z,101027.72
2023-01-27T02:26:29.736Z,101025.09
2023-01-27T02:28:59.647Z,101026.78
2023-01-27T02:31:28.055Z,101022.38
2023-01-27T02:34:05.564Z,101022.16
2023-01-27T02:36:36.563Z,101017.59
2023-01-27T02:39:07.664Z,101015.50
2023-01-27T02:41:41.615Z,101028.63
2023-01-27T02:44:10.291Z,101024.31
2023-01-27T02:46:38.355Z,101027.91
2023-01-27T02:49:06.362Z,101025.16
2023-01-27T02:51:34.129Z,101023.50
2023-01-27T02:54:01.926Z,101022.44
2023-01-27T02:56:29.691Z,101029.38
2023-01-27T02:58:58.942Z,101035.31
2023-01-27T03:01:27.865Z,101040.47
2023-01-27T03:03:55.723Z,101033.78
2023-01-27T03:06:23.397Z,101041.88
2023-01-27T03:08:51.098Z,101040.06
2023-01-27T03:11:39.751Z,101041.59
2023-01-27T03:14:09.747Z,101039.91
2023-01-27T03:16:55.030Z,101041.59
2023-01-27T03:19:22.741Z,101044.22
2023-01-27T03:22:01.813Z,101047.38
2023-01-27T03:24:29.480Z,101045.72
2023-01-27T03:26:57.141Z,101047.38
2023-01-27T03:29:43.950Z,101047.38
2023-01-27T03:32:11.632Z,101041.41
2023-01-27T03:34:39.276Z,101036.34
2023-01-27T03:37:24.754Z,101043.47
2023-01-27T03:40:10.104Z,101041.59
2023-01-27T03:42:55.532Z,101043.28
2023-01-27T03:45:42.193Z,101036.72
2023-01-27T03:48:09.986Z,101040.38
2023-01-27T03:50:38.399Z,101042.69
2023-01-27T03:53:07.084Z,101045.44
2023-01-27T03:55:36.676Z,101054.44
2023-01-27T03:58:18.179Z,101049.47
2023-01-27T04:00:48.751Z,101047.50
2023-01-27T04:03:33.761Z,101051.63
2023-01-27T04:06:22.480Z,101053.13
2023-01-27T04:08:50.453Z,101058.16
2023-01-27T04:11:36.026Z,101060.16
2023-01-27T04:14:05.308Z,101048.81
2023-01-27T04:16:36.661Z,101058.28
2023-01-27T04:19:05.912Z,101065.50
2023-01-27T04:21:34.187Z,101054.91
2023-01-27T04:24:02.372Z,101063.63
2023-01-27T04:26:33.155Z,101055.25
2023-01-27T04:29:01.462Z,101069.16
2023-01-27T04:31:29.354Z,101051.69
2023-01-27T04:33:58.517Z,101062.78
2023-01-27T04:36:26.205Z,101053.03
2023-01-27T04:38:53.905Z,101063.53
2023-01-27T04:41:21.721Z,101073.84
2023-01-27T04:43:49.415Z,101063.53
2023-01-27T04:46:17.250Z,101062.78
2023-01-27T04:48:44.968Z,101062.69
2023-01-27T04:51:13.984Z,101065.41
2023-01-27T04:53:42.573Z,101067.09
2023-01-27T04:56:22.258Z,101067.09
2023-01-27T04:58:50.084Z,101079.31
2023-01-27T05:01:17.950Z,101069.16
2023-01-27T05:03:45.656Z,101069.16
2023-01-27T05:06:15.404Z,101073.47
2023-01-27T05:08:43.105Z,101075.16
2023-01-27T05:11:11.305Z,101073.28
2023-01-27T05:13:40.784Z,101078.53
2023-01-27T05:16:11.679Z,101079.31
2023-01-27T05:18:40.236Z,101077.03
2023-01-27T05:21:09.140Z,101083.03
2023-01-27T05:23:38.168Z,101074.41
2023-01-27T05:26:09.457Z,101074.09
2023-01-27T05:28:38.071Z,101079.84
2023-01-27T05:31:07.380Z,101073.84
2023-01-27T05:33:35.364Z,101083.31
2023-01-27T05:36:04.319Z,101086.22
2023-01-27T05:38:32.643Z,101080.88
2023-01-27T05:41:03.922Z,101093.91
2023-01-27T05:43:33.773Z,101090.25
2023-01-27T05:46:06.701Z,101092.81
2023-01-27T05:48:36.479Z,101106.47
2023-01-27T05:51:04.308Z,101097.84
2023-01-27T05:53:32.531Z,101097.84
2023-01-27T05:56:02.010Z,101105.47
2023-01-27T05:58:29.670Z,101108.00
2023-01-27T06:00:57.351Z,101103.69
2023-01-27T06:03:25.051Z,101107.16
2023-01-27T06:05:54.807Z,101108.34
2023-01-27T06:08:23.738Z,101113.59
2023-01-27T06:10:51.804Z,101111.75
2023-01-27T06:13:23.089Z,101110.81
2023-01-27T06:15:51.303Z,101109.09
2023-01-27T06:18:20.475Z,101114.91
2023-01-27T06:20:48.469Z,101112.09
2023-01-27T06:23:17.828Z,101116.41
2023-01-27T06:25:47.701Z,101113.03
2023-01-27T06:28:28.151Z,101109.56
2023-01-27T06:30:58.298Z,101108.00
2023-01-27T06:33:26.136Z,101112.28
2023-01-27T06:36:02.484Z,101111.34
2023-01-27T06:38:30.179Z,101105.06
2023-01-27T06:40:57.816Z,101108.63
2023-01-27T06:43:25.615Z,101113.03
2023-01-27T06:45:53.904Z,101113.03
2023-01-27T06:48:22.930Z,101120.91
2023-01-27T06:50:50.792Z,101133.22
2023-01-27T06:53:18.491Z,101128.72
2023-01-27T06:55:46.146Z,101128.44
2023-01-27T06:58:15.511Z,101123.63
2023-01-27T07:00:43.578Z,101128.81
2023-01-27T07:05:42.980Z,101130.22
2023-01-27T07:08:11.074Z,101132.09
2023-01-27T07:10:40.023Z,101144.38
2023-01-27T07:13:08.492Z,101154.72
2023-01-27T07:15:36.599Z,101163.25
2023-01-27T07:18:05.187Z,101154.34
2023-01-27T07:20:33.783Z,101149.63
2023-01-27T07:23:04.869Z,101147.94
2023-01-27T07:25:34.029Z,101151.78
2023-01-27T07:28:03.022Z,101159.97
2023-01-27T07:30:31.323Z,101161.00
2023-01-27T07:33:04.513Z,101158.28
2023-01-27T07:35:32.179Z,101173.28
2023-01-27T07:38:00.327Z,101170.84
2023-01-27T07:40:29.635Z,101174.22
2023-01-27T07:43:00.207Z,101178.25
2023-01-27T07:45:28.960Z,101179.47
2023-01-27T07:48:01.436Z,101179.09
2023-01-27T07:50:29.346Z,101182.56
2023-01-27T07:52:59.912Z,101189.25
2023-01-27T07:55:29.254Z,101191.13
2023-01-27T07:57:57.416Z,101193.53
2023-01-27T08:00:25.913Z,101192.16
2023-01-27T08:02:54.293Z,101193.56
2023-01-27T08:05:23.113Z,101197.88
2023-01-27T08:07:51.357Z,101201.25
2023-01-27T08:10:19.929Z,101207.06
2023-01-27T08:12:49.756Z,101202.66
2023-01-27T08:15:19.141Z,101206.31
2023-01-27T08:17:54.677Z,101208.53
2023-01-27T08:20:22.853Z,101209.94
2023-01-27T08:22:50.521Z,101204.03
2023-01-27T08:25:18.385Z,101204.75
2023-01-27T08:27:46.146Z,101209.56
2023-01-27T08:30:16.003Z,101201.59
2023-01-27T08:32:43.876Z,101199.63
2023-01-27T08:35:11.827Z,101203.09
2023-01-27T08:37:39.512Z,101202.13
2023-01-27T08:40:08.165Z,101197.88
2023-01-27T08:42:35.802Z,101206.88
2023-01-27T08:45:03.877Z,101202.06
2023-01-27T08:47:32.908Z,101215.13
2023-01-27T08:50:00.646Z,101216.38
2023-01-27T08:52:30.763Z,101223.53
2023-01-27T08:54:59.159Z,101222.75
2023-01-27T08:57:27.000Z,101225.59
2023-01-27T08:59:54.857Z,101224.28
2023-01-27T09:02:24.378Z,101231.25
2023-01-27T09:04:53.710Z,101220.53
2023-01-27T09:07:21.476Z,101230.63
2023-01-27T09:09:52.482Z,101231.47
2023-01-27T09:12:23.697Z,101230.31
2023-01-27T09:14:51.405Z,101238.59
2023-01-27T09:17:19.774Z,101238.19
2023-01-27T09:19:47.516Z,101242.06
2023-01-27T09:22:16.617Z,101242.91
2023-01-27T09:24:44.390Z,101244.78
2023-01-27T09:27:12.318Z,101239.72
2023-01-27T09:29:40.144Z,101248.63
2023-01-27T09:32:09.254Z,101250.72
2023-01-27T09:34:37.073Z,101248.19
2023-01-27T09:37:08.487Z,101255.13
2023-01-27T09:39:41.350Z,101254.00
2023-01-27T09:42:43.241Z,101252.41
2023-01-27T09:45:27.200Z,101265.66
2023-01-27T09:48:14.610Z,101263.31
2023-01-27T09:50:45.431Z,101262.09
2023-01-27T09:53:51.075Z,101264.53
2023-01-27T09:56:30.061Z,101262.53
2023-01-27T09:59:10.114Z,101262.44
2023-01-27T10:01:49.639Z,101261.25
2023-01-27T10:04:45.736Z,101261.06
2023-01-27T10:07:29.088Z,101263.03
2023-01-27T10:10:08.414Z,101262.41
2023-01-27T10:12:52.000Z,101263.75
2023-01-27T10:15:33.428Z,101257.41
2023-01-27T10:18:10.632Z,101258.19
2023-01-27T10:20:46.666Z,101258.09
2023-01-27T10:23:29.794Z,101250.19
2023-01-27T10:26:09.862Z,101253.34
2023-01-27T10:28:42.557Z,101254.09
2023-01-27T10:31:16.115Z,101248.84
2023-01-27T10:33:52.205Z,101244.88
2023-01-27T10:36:27.437Z,101248.16
2023-01-27T10:39:08.689Z,101237.47
2023-01-27T10:41:47.754Z,101241.50
2023-01-27T10:44:36.773Z,101240.13
2023-01-27T10:47:12.786Z,101238.91
2023-01-27T10:49:44.427Z,101243.22
2023-01-27T10:52:17.180Z,101234.09
2023-01-27T10:54:52.712Z,101246.09
2023-01-27T10:57:26.600Z,101229.06
2023-01-27T11:02:59.879Z,101221.56
2023-01-27T11:05:32.420Z,101224.63
2023-01-27T11:08:03.729Z,101226.84
2023-01-27T11:10:36.583Z,101219.78
2023-01-27T11:13:06.310Z,101219.59
2023-01-27T11:15:36.245Z,101220.34
2023-01-27T11:18:11.495Z,101230.75
2023-01-27T11:20:42.421Z,101228.81
2023-01-27T11:23:17.798Z,101228.25
2023-01-27T11:25:50.983Z,101221.63
2023-01-27T11:28:30.283Z,101225.97
2023-01-27T11:31:08.811Z,101224.63
2023-01-27T11:33:47.983Z,101218.75
2023-01-27T11:36:15.969Z,101213.56
2023-01-27T11:38:43.779Z,101216.97
2023-01-27T11:41:12.014Z,101221.47
2023-01-27T11:43:40.358Z,101222.56
2023-01-27T11:46:20.005Z,101219.16
2023-01-27T11:48:52.011Z,101222.13
2023-01-27T11:51:23.014Z,101211.41
2023-01-27T11:54:06.086Z,101218.13
2023-01-27T11:56:36.747Z,101212.88
2023-01-27T11:59:09.312Z,101208.41
2023-01-27T12:01:50.223Z,101211.75
2023-01-27T12:04:25.069Z,101206.06
2023-01-27T12:06:56.433Z,101202.88
2023-01-27T12:09:35.794Z,101201.41
2023-01-27T12:12:21.827Z,101211.94
2023-01-27T12:14:51.078Z,101211.19
2023-01-27T12:17:26.850Z,101205.91
2023-01-27T12:19:58.286Z,101201.59
2023-01-27T12:22:29.943Z,101206.91
2023-01-27T12:25:01.744Z,101199.34
2023-01-27T12:27:33.159Z,101192.13
2023-01-27T12:30:03.971Z,101196.88
2023-01-27T12:32:40.657Z,101188.97
2023-01-27T12:35:19.555Z,101188.16
2023-01-27T12:37:48.748Z,101185.97
2023-01-27T12:40:21.152Z,101191.78
2023-01-27T12:42:51.863Z,101188.41
2023-01-27T12:45:25.663Z,101184.94
2023-01-27T12:48:03.849Z,101178.28
2023-01-27T12:50:33.900Z,101182.81
2023-01-27T12:53:06.062Z,101186.91
2023-01-27T12:55:35.434Z,101188.72
2023-01-27T12:58:04.407Z,101186.28
2023-01-27T13:00:32.493Z,101190.22
2023-01-27T13:03:08.349Z,101185.97
2023-01-27T13:05:38.710Z,101189.34
2023-01-27T13:08:07.375Z,101188.72
2023-01-27T13:10:35.495Z,101179.75
2023-01-27T13:13:05.132Z,101182.47
2023-01-27T13:15:33.333Z,101188.56
2023-01-27T13:18:13.885Z,101179.50
2023-01-27T13:20:46.555Z,101183.63
2023-01-27T13:23:19.415Z,101180.22
2023-01-27T13:25:54.500Z,101187.91
2023-01-27T13:28:28.399Z,101182.44
2023-01-27T13:31:03.669Z,101188.22
2023-01-27T13:33:42.832Z,101179.63
2023-01-27T13:36:21.823Z,101187.53
2023-01-27T13:38:56.617Z,101186.59
2023-01-27T13:41:32.335Z,101179.63
2023-01-27T13:44:06.724Z,101182.97
2023-01-27T13:46:39.507Z,101186.53
2023-01-27T13:49:18.710Z,101187.69
2023-01-27T13:51:46.486Z,101190.88
2023-01-27T13:54:16.589Z,101184.47
2023-01-27T13:57:00.803Z,101186.25
2023-01-27T13:59:40.679Z,101186.56
2023-01-27T14:02:32.713Z,101188.34
2023-01-27T14:05:21.589Z,101186.13
2023-01-27T14:07:58.244Z,101183.16
2023-01-27T14:10:36.022Z,101185.28
2023-01-27T14:13:16.330Z,101177.59
2023-01-27T14:15:52.027Z,101182.28
2023-01-27T14:18:25.241Z,101178.91
2023-01-27T14:21:15.555Z,101185.00
2023-01-27T14:24:00.929Z,101185.84
2023-01-27T14:26:48.752Z,101182.69
2023-01-27T14:29:27.487Z,101178.59
2023-01-27T14:32:05.747Z,101185.25
2023-01-27T14:34:49.606Z,101191.91
2023-01-27T14:37:29.382Z,101193.81
2023-01-27T14:40:14.404Z,101199.78
2023-01-27T14:42:51.147Z,101197.91
2023-01-27T14:45:23.126Z,101196.94
2023-01-27T14:47:59.186Z,101201.28
2023-01-27T14:50:34.167Z,101203.91
2023-01-27T14:53:21.060Z,101205.38
2023-01-27T14:55:56.662Z,101210.44
2023-01-27T14:58:41.721Z,101213.81
2023-01-27T15:01:20.032Z,101221.31
2023-01-27T15:04:11.006Z,101224.03
2023-01-27T15:06:47.295Z,101228.16
2023-01-27T15:09:34.727Z,101224.75
2023-01-27T15:12:14.904Z,101225.00
2023-01-27T15:15:20.857Z,101234.78
2023-01-27T15:18:06.903Z,101238.78
2023-01-27T15:20:46.658Z,101245.53
2023-01-27T15:23:43.473Z,101247.81
2023-01-27T15:26:15.642Z,101250.03
2023-01-27T15:28:44.445Z,101253.53
2023-01-27T15:31:24.979Z,101260.91
2023-01-27T15:33:55.684Z,101256.47
2023-01-27T15:36:35.763Z,101264.06
2023-01-27T15:39:21.862Z,101262.16
2023-01-27T15:42:11.494Z,101263.22
2023-01-27T15:45:01.546Z,101266.69
2023-01-27T15:47:32.124Z,101263.22
2023-01-27T15:50:12.643Z,101267.03
2023-01-27T15:52:43.933Z,101260.06
2023-01-27T15:55:25.957Z,101256.81
2023-01-27T15:58:05.221Z,101255.22
2023-01-27T16:00:36.125Z,101258.78
2023-01-27T16:03:07.962Z,101256.91
2023-01-27T16:05:45.203Z,101258.19
2023-01-27T16:08:15.601Z,101252.50
2023-01-27T16:10:43.885Z,101257.75
2023-01-27T16:13:27.615Z,101262.63
2023-01-27T16:16:33.987Z,101260.50
2023-01-27T16:19:09.915Z,101268.72
2023-01-27T16:21:47.535Z,101269.31
2023-01-27T16:24:24.371Z,101268.56
2023-01-27T16:26:57.221Z,101275.53
2023-01-27T16:29:35.346Z,101273.97
2023-01-27T16:32:06.422Z,101278.31
2023-01-27T16:34:42.507Z,101289.47
2023-01-27T16:37:25.417Z,101284.94
2023-01-27T16:40:00.147Z,101289.38
2023-01-27T16:42:34.890Z,101295.81
2023-01-27T16:45:15.131Z,101297.69
2023-01-27T16:47:48.249Z,101304.00
2023-01-27T16:50:36.928Z,101299.06
2023-01-27T16:53:06.654Z,101302.63
2023-01-27T16:55:34.300Z,101301.13
2023-01-27T16:58:03.863Z,101294.81
2023-01-27T17:00:35.906Z,101313.47
2023-01-27T17:03:09.922Z,101303.34
2023-01-27T17:05:38.227Z,101306.72
2023-01-27T17:08:17.277Z,101303.56
2023-01-27T17:10:49.632Z,101308.94
2023-01-27T17:13:28.407Z,101311.66
2023-01-27T17:15:58.945Z,101316.94
2023-01-27T17:18:27.847Z,101311.66
2023-01-27T17:20:57.777Z,101317.06
2023-01-27T17:23:31.362Z,101318.44
2023-01-27T17:26:03.430Z,101318.88
2023-01-27T17:28:31.226Z,101314.03
2023-01-27T17:31:07.650Z,101320.72
2023-01-27T17:33:37.484Z,101316.28
2023-01-27T17:36:10.757Z,101319.75
2023-01-27T17:38:46.228Z,101316.28
2023-01-27T17:41:29.563Z,101317.22
2023-01-27T17:44:01.433Z,101310.69
2023-01-27T17:46:33.428Z,101315.34
2023-01-27T17:49:04.403Z,101318.50
2023-01-27T17:51:37.743Z,101314.72
2023-01-27T17:54:17.086Z,101316.63
2023-01-27T17:56:44.823Z,101317.00
2023-01-27T17:59:16.794Z,101319.44
2023-01-27T18:01:46.990Z,101323.34
2023-01-27T18:04:15.018Z,101327.22
2023-01-27T18:06:43.678Z,101334.25
2023-01-27T18:09:19.380Z,101335.53
2023-01-27T18:11:59.785Z,101327.34
2023-01-27T18:14:30.497Z,101336.38
2023-01-27T18:17:01.188Z,101327.53
2023-01-27T18:19:29.205Z,101333.66
2023-01-27T18:22:16.279Z,101326.97
2023-01-27T18:24:51.356Z,101339.09
2023-01-27T18:27:28.920Z,101333.44
2023-01-27T18:30:02.437Z,101345.88
2023-01-27T18:32:40.077Z,101351.75
2023-01-27T18:35:24.896Z,101347.94
2023-01-27T18:37:55.540Z,101361.13
2023-01-27T18:40:28.670Z,101350.34
2023-01-27T18:42:57.881Z,101356.66
2023-01-27T18:45:26.335Z,101356.44
2023-01-27T18:47:55.804Z,101347.22
2023-01-27T18:50:25.052Z,101352.19
2023-01-27T18:52:54.101Z,101351.34
2023-01-27T18:55:23.824Z,101359.44
2023-01-27T18:57:54.002Z,101367.34
2023-01-27T19:00:23.829Z,101361.63
2023-01-27T19:02:54.014Z,101356.84
2023-01-27T19:05:25.362Z,101363.28
2023-01-27T19:07:53.265Z,101358.00
2023-01-27T19:10:24.860Z,101361.38
2023-01-27T19:12:52.771Z,101363.47
2023-01-27T19:15:23.820Z,101363.63
2023-01-27T19:17:52.922Z,101357.22
2023-01-27T19:20:23.948Z,101362.47
2023-01-27T19:22:52.911Z,101362.38
2023-01-27T19:25:21.516Z,101360.19
2023-01-27T19:27:52.128Z,101371.06
2023-01-27T19:30:28.254Z,101363.63
2023-01-27T19:32:56.625Z,101378.38
2023-01-27T19:35:27.470Z,101377.09
2023-01-27T19:37:57.097Z,101373.56
2023-01-27T19:40:26.732Z,101375.97
2023-01-27T19:42:54.861Z,101373.94
2023-01-27T19:45:23.361Z,101381.84
2023-01-27T19:47:52.787Z,101382.91
2023-01-27T19:50:22.882Z,101386.94
2023-01-27T19:52:52.974Z,101398.25
2023-01-27T19:55:21.843Z,101395.44
2023-01-27T19:57:51.462Z,101402.31
2023-01-27T20:00:25.169Z,101398.94
2023-01-27T20:02:52.949Z,101400.91
2023-01-27T20:05:21.107Z,101407.03
2023-01-27T20:07:49.210Z,101401.56
2023-01-27T20:10:21.194Z,101405.13
2023-01-27T20:12:55.670Z,101403.84
2023-01-27T20:15:24.348Z,101405.72
2023-01-27T20:17:52.879Z,101400.38
2023-01-27T20:20:21.297Z,101400.88
2023-01-27T20:22:49.258Z,101398.50
2023-01-27T20:25:19.790Z,101392.22
2023-01-27T20:27:49.443Z,101394.00
2023-01-27T20:30:18.947Z,101404.28
2023-01-27T20:32:47.220Z,101397.88
2023-01-27T20:35:16.578Z,101405.56
2023-01-27T20:37:45.389Z,101397.97
2023-01-27T20:40:15.515Z,101411.78
2023-01-27T20:42:44.975Z,101404.09
2023-01-27T20:45:13.894Z,101404.19
2023-01-27T20:47:42.232Z,101404.72
2023-01-27T20:50:11.760Z,101405.38
2023-01-27T20:52:40.047Z,101407.16
2023-01-27T20:55:09.577Z,101405.56
2023-01-27T20:57:37.321Z,101408.78
2023-01-27T21:00:07.657Z,101407.84
2023-01-27T21:02:35.607Z,101417.25
2023-01-27T21:05:03.430Z,101410.19
2023-01-27T21:07:31.113Z,101413.47
2023-01-27T21:09:59.096Z,101420.03
2023-01-27T21:12:27.639Z,101421.47
2023-01-27T21:14:55.326Z,101423.56
2023-01-27T21:17:24.807Z,101418.03
2023-01-27T21:19:52.635Z,101420.06
2023-01-27T21:22:20.310Z,101419.69
2023-01-27T21:24:48.013Z,101420.25
2023-01-27T21:27:15.706Z,101425.53
2023-01-27T21:29:44.147Z,101434.53
2023-01-27T21:32:11.943Z,101428.16
2023-01-27T21:34:40.932Z,101432.66
2023-01-27T21:37:08.621Z,101433.50
2023-01-27T21:39:36.318Z,101429.50
2023-01-27T21:42:21.387Z,101421.97
2023-01-27T21:45:06.739Z,101427.22
2023-01-27T21:47:34.698Z,101431.09
2023-01-27T21:50:04.285Z,101430.44
2023-01-27T21:52:35.584Z,101438.34
2023-01-27T21:55:04.575Z,101440.44
2023-01-27T21:57:32.461Z,101434.75
2023-01-27T22:00:00.207Z,101429.94
2023-01-27T22:02:29.390Z,101430.63
2023-01-27T22:04:57.331Z,101445.03
2023-01-27T22:07:27.619Z,101430.91
2023-01-27T22:09:55.317Z,101435.97
2023-01-27T22:12:23.547Z,101435.03
2023-01-27T22:14:53.998Z,101444.28
2023-01-27T22:17:21.642Z,101440.97
2023-01-27T22:19:49.410Z,101453.78
2023-01-27T22:22:17.129Z,101445.34
2023-01-27T22:24:46.235Z,101448.22
2023-01-27T22:27:16.699Z,101444.47
2023-01-27T22:29:44.419Z,101443.69
2023-01-27T22:32:12.201Z,101445.03
2023-01-27T22:34:40.123Z,101455.16
2023-01-27T22:37:07.829Z,101444.31
2023-01-27T22:39:35.522Z,101445.94
2023-01-27T22:42:04.960Z,101441.50
2023-01-27T22:44:32.797Z,101446.50
2023-01-27T22:47:00.408Z,101440.03
2023-01-27T22:49:28.107Z,101448.31
2023-01-27T22:51:55.933Z,101452.84
2023-01-27T22:54:23.607Z,101450.47
2023-01-27T22:56:51.348Z,101446.34
2023-01-27T22:59:20.452Z,101442.88
2023-01-27T23:01:48.145Z,101437.97
2023-01-27T23:04:16.092Z,101437.41
2023-01-27T23:06:43.864Z,101426.69
2023-01-27T23:09:12.373Z,101428.81
2023-01-27T23:11:40.099Z,101431.38
2023-01-27T23:14:08.861Z,101432.22
2023-01-27T23:16:38.005Z,101430.34
2023-01-27T23:19:05.660Z,101429.28
2023-01-27T23:21:33.457Z,101444.31
2023-01-27T23:24:01.219Z,101449.22
2023-01-27T23:26:29.110Z,101435.72
2023-01-27T23:28:56.910Z,101437.41
2023-01-27T23:31:24.877Z,101440.97
2023-01-27T23:33:54.053Z,101444.94
2023-01-27T23:36:21.861Z,101433.91
2023-01-27T23:38:49.620Z,101434.75
2023-01-27T23:41:19.008Z,101433.59
2023-01-27T23:43:46.911Z,101441.69
2023-01-27T23:46:14.650Z,101445.13
2023-01-27T23:48:42.363Z,101445.03
2023-01-27T23:51:14.497Z,101446.25
2023-01-27T23:53:42.183Z,101444.94
2023-01-27T23:56:12.463Z,101450.03
2023-01-27T23:58:40.332Z,101450.22
